Chaleur extrême Valable du: 23-06-2017 13:55 Au: 24-06-2017 01:59 Avertissement pour: Chaleur extrême Niveau: Jaune info button
Mountain View Mountain View Mountain View Mountain View


Uccle  Uccle


Leuven  Leuven


Thunder radar more information blitzortung!


Rain radar more information rain snow radar


Visitez nos sites météorologiques autres:

Template documentation
and downloads

And another site



Rapports METAR proximité

   
EBAW - Antwerp
Mise à jour: 23-06-2017 13:50
Peu de nuages  
Peu de nuages  
   Vent: OSO 22.2 km/h
Vent: OSO 22.2 km/h
Température: 24°C
Point de rosée: 12°C
Humidité: 47%
Baromètre: 1016 hPa
Nuageux: Peu de nuages
visibilité: More than 10 km
Détails des nuages: Peu de nuages 3300 ft
EBAW 231150Z 25012KT 210V290 9999 FEW033 24/12 Q1016 NOSIG
EBLG - Liège
Mise à jour: 23-06-2017 13:50
Partiellement nuageux  
Partiellement nuageux  
   Vent: OSO 22.2 km/h
Vent: OSO 22.2 km/h
Température: 22°C
Point de rosée: 12°C
Humidité: 53%
Baromètre: 1018 hPa
Nuageux: Partiellement nuageux
visibilité: More than 10 km
Détails des nuages: Partiellement nuageux 4000 ft
EBLG 231150Z 25012KT 9999 SCT040 22/12 Q1018 NOSIG
EBCV - Mons/Bergen
Mise à jour: 23-06-2017 13:55
Nuageux  
Nuageux  
   Vent: OSO 20.4 km/h
Vent: OSO 20.4 km/h
Température: 22°C
Point de rosée: 11°C
Humidité: 50%
Baromètre: 1018 hPa
Nuageux: Nuageux
visibilité: More than 10 km
Détails des nuages: Nuageux 3200 ft
EBCV 231155Z AUTO 25011KT 9999 BKN032/// 22/11 Q1018 BLU
EHBK - Maastricht
Mise à jour: 23-06-2017 13:55
Nuageux  
Nuageux  
   Vent: OSO 22.2 km/h
Vent: OSO 22.2 km/h
Température: 23°C
Point de rosée: 13°C
Humidité: 53%
Baromètre: 1017 hPa
Nuageux: Nuageux
visibilité: More than 10 km
Détails des nuages: Partiellement nuageux 3600 ft,
Nuageux 4100 ft
EHBK 231155Z AUTO 25012KT 200V310 9999 SCT036 BKN041 23/13 Q1017 NOSIG
ELLX - Luxemburg
Mise à jour: 23-06-2017 13:50
Peu de nuages  
Peu de nuages  
   Vent: Ouest 25.9 km/h
Vent: Ouest 25.9 km/h
Température: 21°C
Point de rosée: 13°C
Humidité: 60%
Baromètre: 1019 hPa
Nuageux: Peu de nuages
visibilité: More than 10 km
Détails des nuages: Peu de nuages 2600 ft
ELLX 231150Z 28014KT 240V300 9999 FEW026 21/13 Q1019 NOSIG
EBOS - Oostende
Mise à jour: 23-06-2017 13:50
Peu de nuages  
Peu de nuages  
   Vent: OSO 31.5 km/h
Vent: OSO 31.5 km/h
Température: 21°C
Point de rosée: 12°C
Humidité: 57%
Baromètre: 1017 hPa
Nuageux: Peu de nuages
visibilité: More than 10 km
Détails des nuages: Peu de nuages 2000 ft
EBOS 231150Z 25017KT 9999 FEW020 21/12 Q1017 NOSIG

Script développé par  Saratoga-weather.org Adapté pour le modèle par  Weerstation Leuven

Vous trouverez notre info météo Également à:

WeatherCloud

Weather Underground

AWEKAS

Citizen Weather Observer Program (CWOP)

Équipement que nous utilisons:

Station de Météo
Davis VP2

Programme Météo
Meteobridge

Provider
Webcreating

Davis VP2

Meteobridge

Webcreating

Mountain View Mountain View Mountain View Mountain View